sensor_id;sensor_type;location;lat;lon;timestamp;P1;durP1;ratioP1;P2;durP2;ratioP2
14748;SDS011;7466;53.574;9.976;2024-01-06T00:00:52;8.63;;;7.83;;
14748;SDS011;7466;53.574;9.976;2024-01-06T00:03:19;8.43;;;7.63;;
14748;SDS011;7466;53.574;9.976;2024-01-06T00:05:46;8.33;;;7.53;;
14748;SDS011;7466;53.574;9.976;2024-01-06T00:08:12;9.37;;;8.47;;
14748;SDS011;7466;53.574;9.976;2024-01-06T00:10:39;8.17;;;7.47;;
14748;SDS011;7466;53.574;9.976;2024-01-06T00:13:07;9.10;;;8.20;;
14748;SDS011;7466;53.574;9.976;2024-01-06T00:15:34;8.80;;;8.10;;
14748;SDS011;7466;53.574;9.976;2024-01-06T00:18:01;9.13;;;8.23;;
14748;SDS011;7466;53.574;9.976;2024-01-06T00:20:28;9.47;;;8.57;;
14748;SDS011;7466;53.574;9.976;2024-01-06T00:22:55;10.07;;;9.17;;
14748;SDS011;7466;53.574;9.976;2024-01-06T00:25:24;10.20;;;8.20;;
14748;SDS011;7466;53.574;9.976;2024-01-06T00:27:50;10.07;;;8.60;;
14748;SDS011;7466;53.574;9.976;2024-01-06T00:30:18;9.13;;;8.33;;
14748;SDS011;7466;53.574;9.976;2024-01-06T00:32:45;9.57;;;8.73;;
14748;SDS011;7466;53.574;9.976;2024-01-06T00:35:12;9.60;;;8.70;;
14748;SDS011;7466;53.574;9.976;2024-01-06T00:37:39;9.47;;;8.43;;
14748;SDS011;7466;53.574;9.976;2024-01-06T00:40:06;10.43;;;8.63;;
14748;SDS011;7466;53.574;9.976;2024-01-06T00:42:33;9.50;;;8.60;;
14748;SDS011;7466;53.574;9.976;2024-01-06T00:45:00;9.43;;;8.60;;
14748;SDS011;7466;53.574;9.976;2024-01-06T00:47:29;8.83;;;8.03;;
14748;SDS011;7466;53.574;9.976;2024-01-06T00:49:58;8.97;;;8.17;;
14748;SDS011;7466;53.574;9.976;2024-01-06T00:52:25;9.20;;;8.40;;
14748;SDS011;7466;53.574;9.976;2024-01-06T00:54:51;10.10;;;8.87;;
14748;SDS011;7466;53.574;9.976;2024-01-06T00:57:18;9.87;;;8.87;;
14748;SDS011;7466;53.574;9.976;2024-01-06T00:59:49;10.17;;;8.33;;
14748;SDS011;7466;53.574;9.976;2024-01-06T01:02:15;9.27;;;8.37;;
14748;SDS011;7466;53.574;9.976;2024-01-06T01:04:44;9.47;;;8.53;;
14748;SDS011;7466;53.574;9.976;2024-01-06T01:07:11;9.47;;;8.57;;
14748;SDS011;7466;53.574;9.976;2024-01-06T01:09:38;9.87;;;8.87;;
14748;SDS011;7466;53.574;9.976;2024-01-06T01:12:05;9.47;;;8.67;;
14748;SDS011;7466;53.574;9.976;2024-01-06T01:14:32;9.83;;;8.93;;
14748;SDS011;7466;53.574;9.976;2024-01-06T01:16:59;10.27;;;9.27;;
14748;SDS011;7466;53.574;9.976;2024-01-06T01:19:27;9.30;;;8.40;;
14748;SDS011;7466;53.574;9.976;2024-01-06T01:21:55;9.30;;;8.40;;
14748;SDS011;7466;53.574;9.976;2024-01-06T01:24:22;9.40;;;8.47;;
14748;SDS011;7466;53.574;9.976;2024-01-06T01:26:49;9.00;;;8.10;;
14748;SDS011;7466;53.574;9.976;2024-01-06T01:29:16;11.30;;;8.97;;
14748;SDS011;7466;53.574;9.976;2024-01-06T01:31:45;9.43;;;8.47;;
14748;SDS011;7466;53.574;9.976;2024-01-06T01:34:12;12.77;;;8.80;;
14748;SDS011;7466;53.574;9.976;2024-01-06T01:36:38;10.03;;;9.07;;
14748;SDS011;7466;53.574;9.976;2024-01-06T01:39:07;9.47;;;8.50;;
14748;SDS011;7466;53.574;9.976;2024-01-06T01:41:34;9.40;;;8.60;;
14748;SDS011;7466;53.574;9.976;2024-01-06T01:44:01;9.60;;;8.60;;
14748;SDS011;7466;53.574;9.976;2024-01-06T01:46:40;9.70;;;8.73;;
14748;SDS011;7466;53.574;9.976;2024-01-06T01:49:07;9.77;;;8.87;;
14748;SDS011;7466;53.574;9.976;2024-01-06T01:51:34;10.47;;;9.37;;
14748;SDS011;7466;53.574;9.976;2024-01-06T01:54:06;10.70;;;9.43;;
14748;SDS011;7466;53.574;9.976;2024-01-06T01:56:36;10.00;;;9.10;;
14748;SDS011;7466;53.574;9.976;2024-01-06T01:59:17;10.03;;;9.13;;
14748;SDS011;7466;53.574;9.976;2024-01-06T02:01:45;9.37;;;8.50;;
14748;SDS011;7466;53.574;9.976;2024-01-06T02:04:20;10.10;;;9.10;;
14748;SDS011;7466;53.574;9.976;2024-01-06T02:06:48;11.70;;;9.53;;
14748;SDS011;7466;53.574;9.976;2024-01-06T02:09:44;10.03;;;8.97;;
14748;SDS011;7466;53.574;9.976;2024-01-06T02:12:12;10.13;;;9.13;;
14748;SDS011;7466;53.574;9.976;2024-01-06T02:14:39;10.03;;;9.03;;
14748;SDS011;7466;53.574;9.976;2024-01-06T02:17:12;9.07;;;8.17;;
14748;SDS011;7466;53.574;9.976;2024-01-06T02:19:39;10.83;;;9.73;;
14748;SDS011;7466;53.574;9.976;2024-01-06T02:22:08;10.20;;;9.30;;
14748;SDS011;7466;53.574;9.976;2024-01-06T02:24:38;10.63;;;9.57;;
14748;SDS011;7466;53.574;9.976;2024-01-06T02:27:05;11.00;;;9.93;;
14748;SDS011;7466;53.574;9.976;2024-01-06T02:29:32;10.27;;;9.27;;
14748;SDS011;7466;53.574;9.976;2024-01-06T02:32:00;11.37;;;10.17;;
14748;SDS011;7466;53.574;9.976;2024-01-06T02:34:28;11.97;;;10.70;;
14748;SDS011;7466;53.574;9.976;2024-01-06T02:36:54;10.77;;;9.77;;
14748;SDS011;7466;53.574;9.976;2024-01-06T02:39:23;11.60;;;10.33;;
14748;SDS011;7466;53.574;9.976;2024-01-06T02:41:53;10.73;;;9.67;;
14748;SDS011;7466;53.574;9.976;2024-01-06T02:44:23;11.00;;;9.97;;
14748;SDS011;7466;53.574;9.976;2024-01-06T02:46:49;11.57;;;9.97;;
14748;SDS011;7466;53.574;9.976;2024-01-06T02:49:17;11.17;;;10.07;;
14748;SDS011;7466;53.574;9.976;2024-01-06T02:51:44;13.63;;;11.30;;
14748;SDS011;7466;53.574;9.976;2024-01-06T02:54:11;10.93;;;9.83;;
14748;SDS011;7466;53.574;9.976;2024-01-06T02:56:40;11.10;;;10.00;;
14748;SDS011;7466;53.574;9.976;2024-01-06T02:59:06;12.17;;;10.80;;
14748;SDS011;7466;53.574;9.976;2024-01-06T03:01:33;12.80;;;11.40;;
14748;SDS011;7466;53.574;9.976;2024-01-06T03:04:01;12.00;;;10.80;;
14748;SDS011;7466;53.574;9.976;2024-01-06T03:09:33;12.70;;;10.77;;
14748;SDS011;7466;53.574;9.976;2024-01-06T03:12:04;13.00;;;11.40;;
14748;SDS011;7466;53.574;9.976;2024-01-06T03:14:32;12.70;;;11.40;;
14748;SDS011;7466;53.574;9.976;2024-01-06T03:17:00;13.93;;;11.57;;
14748;SDS011;7466;53.574;9.976;2024-01-06T03:19:27;13.33;;;11.33;;
14748;SDS011;7466;53.574;9.976;2024-01-06T03:21:54;13.40;;;11.83;;
14748;SDS011;7466;53.574;9.976;2024-01-06T03:24:22;12.73;;;11.43;;
14748;SDS011;7466;53.574;9.976;2024-01-06T03:26:50;13.53;;;11.80;;
14748;SDS011;7466;53.574;9.976;2024-01-06T03:29:18;12.97;;;11.57;;
14748;SDS011;7466;53.574;9.976;2024-01-06T03:31:45;13.63;;;12.23;;
14748;SDS011;7466;53.574;9.976;2024-01-06T03:34:12;13.50;;;12.10;;
14748;SDS011;7466;53.574;9.976;2024-01-06T03:36:39;14.03;;;12.60;;
14748;SDS011;7466;53.574;9.976;2024-01-06T03:39:06;14.17;;;12.33;;
14748;SDS011;7466;53.574;9.976;2024-01-06T03:41:33;13.73;;;12.33;;
14748;SDS011;7466;53.574;9.976;2024-01-06T03:44:00;12.23;;;10.93;;
14748;SDS011;7466;53.574;9.976;2024-01-06T03:46:28;13.43;;;11.97;;
14748;SDS011;7466;53.574;9.976;2024-01-06T03:48:55;13.97;;;12.67;;
14748;SDS011;7466;53.574;9.976;2024-01-06T03:51:22;13.93;;;12.53;;
14748;SDS011;7466;53.574;9.976;2024-01-06T03:53:48;14.37;;;12.30;;
14748;SDS011;7466;53.574;9.976;2024-01-06T03:56:15;14.33;;;12.20;;
14748;SDS011;7466;53.574;9.976;2024-01-06T03:58:43;12.93;;;11.63;;
14748;SDS011;7466;53.574;9.976;2024-01-06T04:01:10;14.00;;;12.20;;
14748;SDS011;7466;53.574;9.976;2024-01-06T04:03:38;13.60;;;12.00;;
14748;SDS011;7466;53.574;9.976;2024-01-06T04:06:06;14.83;;;12.67;;
14748;SDS011;7466;53.574;9.976;2024-01-06T04:08:33;13.23;;;11.83;;
14748;SDS011;7466;53.574;9.976;2024-01-06T04:10:59;14.30;;;12.40;;
14748;SDS011;7466;53.574;9.976;2024-01-06T04:13:26;13.87;;;12.00;;
14748;SDS011;7466;53.574;9.976;2024-01-06T04:15:53;13.40;;;12.10;;
14748;SDS011;7466;53.574;9.976;2024-01-06T04:18:20;13.87;;;11.50;;
14748;SDS011;7466;53.574;9.976;2024-01-06T04:20:48;14.83;;;12.67;;
14748;SDS011;7466;53.574;9.976;2024-01-06T04:23:15;13.57;;;12.17;;
14748;SDS011;7466;53.574;9.976;2024-01-06T04:25:42;13.77;;;12.17;;
14748;SDS011;7466;53.574;9.976;2024-01-06T04:28:08;13.20;;;11.80;;
14748;SDS011;7466;53.574;9.976;2024-01-06T04:30:35;13.40;;;11.97;;
14748;SDS011;7466;53.574;9.976;2024-01-06T04:33:02;14.40;;;12.00;;
14748;SDS011;7466;53.574;9.976;2024-01-06T04:35:29;13.03;;;11.27;;
14748;SDS011;7466;53.574;9.976;2024-01-06T04:37:57;13.30;;;11.30;;
14748;SDS011;7466;53.574;9.976;2024-01-06T04:40:24;12.77;;;11.20;;
14748;SDS011;7466;53.574;9.976;2024-01-06T04:42:51;12.63;;;11.37;;
14748;SDS011;7466;53.574;9.976;2024-01-06T04:45:18;12.60;;;11.30;;
14748;SDS011;7466;53.574;9.976;2024-01-06T04:47:44;13.40;;;12.07;;
14748;SDS011;7466;53.574;9.976;2024-01-06T04:50:11;13.77;;;12.40;;
14748;SDS011;7466;53.574;9.976;2024-01-06T04:52:38;13.93;;;12.47;;
14748;SDS011;7466;53.574;9.976;2024-01-06T04:55:06;13.37;;;11.97;;
14748;SDS011;7466;53.574;9.976;2024-01-06T04:57:33;13.23;;;12.00;;
14748;SDS011;7466;53.574;9.976;2024-01-06T05:00:00;14.03;;;12.03;;
14748;SDS011;7466;53.574;9.976;2024-01-06T05:02:27;14.40;;;12.30;;
14748;SDS011;7466;53.574;9.976;2024-01-06T05:04:54;14.17;;;11.90;;
14748;SDS011;7466;53.574;9.976;2024-01-06T05:07:21;14.33;;;11.93;;
14748;SDS011;7466;53.574;9.976;2024-01-06T05:09:48;12.83;;;11.47;;
14748;SDS011;7466;53.574;9.976;2024-01-06T05:12:16;14.83;;;12.07;;
14748;SDS011;7466;53.574;9.976;2024-01-06T05:14:43;12.50;;;11.20;;
14748;SDS011;7466;53.574;9.976;2024-01-06T05:17:10;12.93;;;11.63;;
14748;SDS011;7466;53.574;9.976;2024-01-06T05:19:36;15.50;;;12.53;;
14748;SDS011;7466;53.574;9.976;2024-01-06T05:22:03;13.70;;;12.10;;
14748;SDS011;7466;53.574;9.976;2024-01-06T05:24:30;14.03;;;12.53;;
14748;SDS011;7466;53.574;9.976;2024-01-06T05:26:57;14.03;;;12.53;;
14748;SDS011;7466;53.574;9.976;2024-01-06T05:29:25;14.53;;;12.63;;
14748;SDS011;7466;53.574;9.976;2024-01-06T05:31:52;16.37;;;13.23;;
14748;SDS011;7466;53.574;9.976;2024-01-06T05:34:19;15.03;;;12.63;;
14748;SDS011;7466;53.574;9.976;2024-01-06T05:36:45;13.63;;;12.23;;
14748;SDS011;7466;53.574;9.976;2024-01-06T05:39:13;15.40;;;13.80;;
14748;SDS011;7466;53.574;9.976;2024-01-06T05:41:40;14.63;;;13.13;;
14748;SDS011;7466;53.574;9.976;2024-01-06T05:44:07;16.37;;;13.27;;
14748;SDS011;7466;53.574;9.976;2024-01-06T05:49:05;15.30;;;13.67;;
14748;SDS011;7466;53.574;9.976;2024-01-06T05:51:33;15.57;;;13.57;;
14748;SDS011;7466;53.574;9.976;2024-01-06T05:54:00;15.03;;;13.00;;
14748;SDS011;7466;53.574;9.976;2024-01-06T05:56:27;15.00;;;13.17;;
14748;SDS011;7466;53.574;9.976;2024-01-06T05:58:55;14.53;;;13.03;;
14748;SDS011;7466;53.574;9.976;2024-01-06T06:01:21;16.53;;;13.63;;
14748;SDS011;7466;53.574;9.976;2024-01-06T06:03:48;15.40;;;13.57;;
14748;SDS011;7466;53.574;9.976;2024-01-06T06:06:17;15.87;;;14.10;;
14748;SDS011;7466;53.574;9.976;2024-01-06T06:08:44;16.10;;;13.13;;
14748;SDS011;7466;53.574;9.976;2024-01-06T06:11:11;14.80;;;13.20;;
14748;SDS011;7466;53.574;9.976;2024-01-06T06:13:38;15.57;;;13.30;;
14748;SDS011;7466;53.574;9.976;2024-01-06T06:16:06;17.37;;;14.83;;
14748;SDS011;7466;53.574;9.976;2024-01-06T06:18:32;18.20;;;13.17;;
14748;SDS011;7466;53.574;9.976;2024-01-06T06:21:00;16.23;;;13.80;;
14748;SDS011;7466;53.574;9.976;2024-01-06T06:23:29;15.97;;;13.53;;
14748;SDS011;7466;53.574;9.976;2024-01-06T06:25:56;15.33;;;13.43;;
14748;SDS011;7466;53.574;9.976;2024-01-06T06:28:23;18.60;;;14.30;;
14748;SDS011;7466;53.574;9.976;2024-01-06T06:30:50;15.93;;;14.20;;
14748;SDS011;7466;53.574;9.976;2024-01-06T06:33:17;18.90;;;14.30;;
14748;SDS011;7466;53.574;9.976;2024-01-06T06:35:43;17.17;;;14.20;;
14748;SDS011;7466;53.574;9.976;2024-01-06T06:38:10;16.47;;;13.80;;
14748;SDS011;7466;53.574;9.976;2024-01-06T06:40:38;17.93;;;14.10;;
14748;SDS011;7466;53.574;9.976;2024-01-06T06:43:05;19.20;;;14.67;;
14748;SDS011;7466;53.574;9.976;2024-01-06T06:45:36;19.40;;;15.00;;
14748;SDS011;7466;53.574;9.976;2024-01-06T06:48:05;18.80;;;15.27;;
14748;SDS011;7466;53.574;9.976;2024-01-06T06:50:33;18.33;;;14.00;;
14748;SDS011;7466;53.574;9.976;2024-01-06T06:52:59;16.60;;;13.73;;
14748;SDS011;7466;53.574;9.976;2024-01-06T06:57:56;17.90;;;13.70;;
14748;SDS011;7466;53.574;9.976;2024-01-06T07:00:23;17.57;;;14.13;;
14748;SDS011;7466;53.574;9.976;2024-01-06T07:02:53;17.43;;;14.93;;
14748;SDS011;7466;53.574;9.976;2024-01-06T07:05:19;18.03;;;14.70;;
14748;SDS011;7466;53.574;9.976;2024-01-06T07:07:46;16.20;;;14.40;;
14748;SDS011;7466;53.574;9.976;2024-01-06T07:10:13;18.40;;;14.53;;
14748;SDS011;7466;53.574;9.976;2024-01-06T07:12:40;20.13;;;15.13;;
14748;SDS011;7466;53.574;9.976;2024-01-06T07:15:09;19.17;;;14.83;;
14748;SDS011;7466;53.574;9.976;2024-01-06T07:17:36;17.60;;;14.40;;
14748;SDS011;7466;53.574;9.976;2024-01-06T07:20:03;17.40;;;14.87;;
14748;SDS011;7466;53.574;9.976;2024-01-06T07:22:32;20.17;;;16.00;;
14748;SDS011;7466;53.574;9.976;2024-01-06T07:24:59;18.47;;;14.77;;
14748;SDS011;7466;53.574;9.976;2024-01-06T07:27:26;19.17;;;15.27;;
14748;SDS011;7466;53.574;9.976;2024-01-06T07:29:55;17.23;;;14.60;;
14748;SDS011;7466;53.574;9.976;2024-01-06T07:32:23;18.03;;;14.87;;
14748;SDS011;7466;53.574;9.976;2024-01-06T07:34:50;17.83;;;14.53;;
14748;SDS011;7466;53.574;9.976;2024-01-06T07:37:17;16.90;;;14.27;;
14748;SDS011;7466;53.574;9.976;2024-01-06T07:39:43;17.30;;;14.07;;
14748;SDS011;7466;53.574;9.976;2024-01-06T07:42:10;16.23;;;13.83;;
14748;SDS011;7466;53.574;9.976;2024-01-06T07:44:37;17.33;;;14.20;;
14748;SDS011;7466;53.574;9.976;2024-01-06T07:47:04;16.80;;;13.97;;
14748;SDS011;7466;53.574;9.976;2024-01-06T07:49:32;18.50;;;14.77;;
14748;SDS011;7466;53.574;9.976;2024-01-06T07:51:59;19.33;;;14.97;;
14748;SDS011;7466;53.574;9.976;2024-01-06T07:54:26;16.10;;;13.93;;
14748;SDS011;7466;53.574;9.976;2024-01-06T07:56:53;17.60;;;14.03;;
14748;SDS011;7466;53.574;9.976;2024-01-06T07:59:20;16.57;;;13.27;;
14748;SDS011;7466;53.574;9.976;2024-01-06T08:01:47;18.83;;;14.07;;
14748;SDS011;7466;53.574;9.976;2024-01-06T08:04:14;17.67;;;13.50;;
14748;SDS011;7466;53.574;9.976;2024-01-06T08:09:24;16.70;;;13.23;;
14748;SDS011;7466;53.574;9.976;2024-01-06T08:11:51;14.30;;;12.50;;
14748;SDS011;7466;53.574;9.976;2024-01-06T08:14:18;16.40;;;13.20;;
14748;SDS011;7466;53.574;9.976;2024-01-06T08:16:45;17.70;;;13.40;;
14748;SDS011;7466;53.574;9.976;2024-01-06T08:19:12;15.37;;;12.67;;
14748;SDS011;7466;53.574;9.976;2024-01-06T08:21:38;15.23;;;12.67;;
14748;SDS011;7466;53.574;9.976;2024-01-06T08:24:06;16.97;;;13.30;;
14748;SDS011;7466;53.574;9.976;2024-01-06T08:26:34;14.53;;;12.20;;
14748;SDS011;7466;53.574;9.976;2024-01-06T08:29:00;13.77;;;12.00;;
14748;SDS011;7466;53.574;9.976;2024-01-06T08:31:27;13.77;;;12.37;;
14748;SDS011;7466;53.574;9.976;2024-01-06T08:33:54;13.50;;;11.83;;
14748;SDS011;7466;53.574;9.976;2024-01-06T08:36:21;14.20;;;11.80;;
14748;SDS011;7466;53.574;9.976;2024-01-06T08:38:48;16.40;;;12.73;;
14748;SDS011;7466;53.574;9.976;2024-01-06T08:41:16;13.93;;;11.30;;
14748;SDS011;7466;53.574;9.976;2024-01-06T08:43:42;13.13;;;11.83;;
14748;SDS011;7466;53.574;9.976;2024-01-06T08:46:09;15.00;;;11.53;;
14748;SDS011;7466;53.574;9.976;2024-01-06T08:48:36;13.73;;;12.07;;
14748;SDS011;7466;53.574;9.976;2024-01-06T08:51:03;16.33;;;12.33;;
14748;SDS011;7466;53.574;9.976;2024-01-06T08:53:30;14.47;;;12.37;;
14748;SDS011;7466;53.574;9.976;2024-01-06T08:55:57;13.47;;;12.07;;
14748;SDS011;7466;53.574;9.976;2024-01-06T08:58:25;13.77;;;10.83;;
14748;SDS011;7466;53.574;9.976;2024-01-06T09:00:52;13.00;;;11.70;;
14748;SDS011;7466;53.574;9.976;2024-01-06T09:03:19;13.40;;;11.73;;
14748;SDS011;7466;53.574;9.976;2024-01-06T09:05:50;13.20;;;11.07;;
14748;SDS011;7466;53.574;9.976;2024-01-06T09:08:17;13.10;;;11.70;;
14748;SDS011;7466;53.574;9.976;2024-01-06T09:10:43;14.07;;;12.10;;
14748;SDS011;7466;53.574;9.976;2024-01-06T09:13:10;13.60;;;11.67;;
14748;SDS011;7466;53.574;9.976;2024-01-06T09:15:38;13.97;;;11.43;;
14748;SDS011;7466;53.574;9.976;2024-01-06T09:18:05;13.97;;;11.63;;
14748;SDS011;7466;53.574;9.976;2024-01-06T09:20:32;14.30;;;12.80;;
14748;SDS011;7466;53.574;9.976;2024-01-06T09:22:58;13.07;;;11.70;;
14748;SDS011;7466;53.574;9.976;2024-01-06T09:25:25;13.23;;;11.83;;
14748;SDS011;7466;53.574;9.976;2024-01-06T09:27:52;14.27;;;12.03;;
14748;SDS011;7466;53.574;9.976;2024-01-06T09:30:19;13.60;;;12.10;;
14748;SDS011;7466;53.574;9.976;2024-01-06T09:32:47;15.33;;;12.17;;
14748;SDS011;7466;53.574;9.976;2024-01-06T09:35:14;14.00;;;11.93;;
14748;SDS011;7466;53.574;9.976;2024-01-06T09:37:41;13.47;;;11.70;;
14748;SDS011;7466;53.574;9.976;2024-01-06T09:40:08;12.70;;;11.40;;
14748;SDS011;7466;53.574;9.976;2024-01-06T09:42:38;13.97;;;11.57;;
14748;SDS011;7466;53.574;9.976;2024-01-06T09:45:06;15.53;;;12.40;;
14748;SDS011;7466;53.574;9.976;2024-01-06T09:47:34;13.23;;;11.77;;
14748;SDS011;7466;53.574;9.976;2024-01-06T09:50:03;13.10;;;11.70;;
14748;SDS011;7466;53.574;9.976;2024-01-06T09:52:34;14.17;;;12.07;;
14748;SDS011;7466;53.574;9.976;2024-01-06T09:55:06;11.93;;;10.53;;
14748;SDS011;7466;53.574;9.976;2024-01-06T09:57:36;17.83;;;13.03;;
14748;SDS011;7466;53.574;9.976;2024-01-06T10:00:04;15.00;;;11.90;;
14748;SDS011;7466;53.574;9.976;2024-01-06T10:02:33;14.83;;;11.37;;
14748;SDS011;7466;53.574;9.976;2024-01-06T10:05:00;14.33;;;11.93;;
14748;SDS011;7466;53.574;9.976;2024-01-06T10:07:29;15.10;;;12.30;;
14748;SDS011;7466;53.574;9.976;2024-01-06T10:09:56;14.47;;;11.90;;
14748;SDS011;7466;53.574;9.976;2024-01-06T10:12:23;16.50;;;12.53;;
14748;SDS011;7466;53.574;9.976;2024-01-06T10:14:50;15.20;;;11.97;;
14748;SDS011;7466;53.574;9.976;2024-01-06T10:17:17;13.30;;;11.87;;
14748;SDS011;7466;53.574;9.976;2024-01-06T10:19:44;17.83;;;13.13;;
14748;SDS011;7466;53.574;9.976;2024-01-06T10:22:12;15.73;;;12.73;;
14748;SDS011;7466;53.574;9.976;2024-01-06T10:24:40;15.43;;;11.37;;
14748;SDS011;7466;53.574;9.976;2024-01-06T10:27:07;14.03;;;12.00;;
14748;SDS011;7466;53.574;9.976;2024-01-06T10:29:35;14.73;;;11.43;;
14748;SDS011;7466;53.574;9.976;2024-01-06T10:32:03;14.97;;;11.50;;
14748;SDS011;7466;53.574;9.976;2024-01-06T10:34:31;14.67;;;11.93;;
14748;SDS011;7466;53.574;9.976;2024-01-06T10:36:58;17.43;;;12.03;;
14748;SDS011;7466;53.574;9.976;2024-01-06T10:39:25;14.77;;;11.20;;
14748;SDS011;7466;53.574;9.976;2024-01-06T10:41:55;15.17;;;11.50;;
14748;SDS011;7466;53.574;9.976;2024-01-06T10:44:23;13.90;;;11.53;;
14748;SDS011;7466;53.574;9.976;2024-01-06T10:46:50;20.40;;;12.37;;
14748;SDS011;7466;53.574;9.976;2024-01-06T10:49:18;13.93;;;11.67;;
14748;SDS011;7466;53.574;9.976;2024-01-06T10:51:47;15.00;;;12.53;;
14748;SDS011;7466;53.574;9.976;2024-01-06T10:54:15;13.33;;;11.23;;
14748;SDS011;7466;53.574;9.976;2024-01-06T10:56:44;14.87;;;12.00;;
14748;SDS011;7466;53.574;9.976;2024-01-06T10:59:13;16.73;;;12.77;;
14748;SDS011;7466;53.574;9.976;2024-01-06T11:01:41;15.13;;;12.70;;
14748;SDS011;7466;53.574;9.976;2024-01-06T11:04:09;15.70;;;11.37;;
14748;SDS011;7466;53.574;9.976;2024-01-06T11:06:36;14.47;;;10.93;;
14748;SDS011;7466;53.574;9.976;2024-01-06T11:09:04;11.23;;;10.10;;
14748;SDS011;7466;53.574;9.976;2024-01-06T11:11:35;11.90;;;10.67;;
14748;SDS011;7466;53.574;9.976;2024-01-06T11:14:18;12.03;;;10.27;;
14748;SDS011;7466;53.574;9.976;2024-01-06T11:16:46;11.70;;;10.50;;
14748;SDS011;7466;53.574;9.976;2024-01-06T11:25:05;13.27;;;10.70;;
14748;SDS011;7466;53.574;9.976;2024-01-06T11:27:32;12.70;;;10.50;;
14748;SDS011;7466;53.574;9.976;2024-01-06T11:30:06;11.30;;;9.77;;
14748;SDS011;7466;53.574;9.976;2024-01-06T11:32:34;11.70;;;10.33;;
14748;SDS011;7466;53.574;9.976;2024-01-06T11:35:07;12.77;;;10.00;;
14748;SDS011;7466;53.574;9.976;2024-01-06T11:37:35;11.73;;;9.23;;
14748;SDS011;7466;53.574;9.976;2024-01-06T11:40:22;13.27;;;9.73;;
14748;SDS011;7466;53.574;9.976;2024-01-06T11:42:56;10.00;;;9.00;;
14748;SDS011;7466;53.574;9.976;2024-01-06T11:45:27;12.57;;;10.27;;
14748;SDS011;7466;53.574;9.976;2024-01-06T11:47:54;10.27;;;9.37;;
14748;SDS011;7466;53.574;9.976;2024-01-06T11:50:22;11.33;;;9.40;;
14748;SDS011;7466;53.574;9.976;2024-01-06T11:52:49;11.50;;;9.37;;
14748;SDS011;7466;53.574;9.976;2024-01-06T11:55:17;11.33;;;9.57;;
14748;SDS011;7466;53.574;9.976;2024-01-06T11:57:44;11.87;;;9.17;;
14748;SDS011;7466;53.574;9.976;2024-01-06T12:00:12;10.73;;;9.73;;
14748;SDS011;7466;53.574;9.976;2024-01-06T12:02:41;10.90;;;9.70;;
14748;SDS011;7466;53.574;9.976;2024-01-06T12:05:12;11.83;;;9.80;;
14748;SDS011;7466;53.574;9.976;2024-01-06T12:07:40;10.83;;;9.70;;
14748;SDS011;7466;53.574;9.976;2024-01-06T12:10:08;9.43;;;8.53;;
14748;SDS011;7466;53.574;9.976;2024-01-06T12:12:35;9.60;;;8.57;;
14748;SDS011;7466;53.574;9.976;2024-01-06T12:15:02;12.50;;;8.70;;
14748;SDS011;7466;53.574;9.976;2024-01-06T12:17:30;9.20;;;8.30;;
14748;SDS011;7466;53.574;9.976;2024-01-06T12:19:58;8.90;;;8.00;;
14748;SDS011;7466;53.574;9.976;2024-01-06T12:22:25;11.17;;;8.63;;
14748;SDS011;7466;53.574;9.976;2024-01-06T12:24:53;11.70;;;8.70;;
14748;SDS011;7466;53.574;9.976;2024-01-06T12:27:19;8.47;;;7.20;;
14748;SDS011;7466;53.574;9.976;2024-01-06T12:29:46;10.33;;;8.73;;
14748;SDS011;7466;53.574;9.976;2024-01-06T12:32:13;8.87;;;8.07;;
14748;SDS011;7466;53.574;9.976;2024-01-06T12:34:40;9.47;;;8.57;;
14748;SDS011;7466;53.574;9.976;2024-01-06T12:37:08;10.10;;;8.77;;
14748;SDS011;7466;53.574;9.976;2024-01-06T12:39:34;8.87;;;8.03;;
14748;SDS011;7466;53.574;9.976;2024-01-06T12:42:01;10.60;;;8.27;;
14748;SDS011;7466;53.574;9.976;2024-01-06T12:44:28;9.57;;;8.63;;
14748;SDS011;7466;53.574;9.976;2024-01-06T12:46:57;9.33;;;8.43;;
14748;SDS011;7466;53.574;9.976;2024-01-06T12:49:24;8.37;;;7.67;;
14748;SDS011;7466;53.574;9.976;2024-01-06T12:51:52;9.27;;;8.20;;
14748;SDS011;7466;53.574;9.976;2024-01-06T12:54:21;9.47;;;8.33;;
14748;SDS011;7466;53.574;9.976;2024-01-06T12:56:47;9.40;;;7.97;;
14748;SDS011;7466;53.574;9.976;2024-01-06T12:59:14;10.70;;;8.17;;
14748;SDS011;7466;53.574;9.976;2024-01-06T13:01:41;8.73;;;7.83;;
14748;SDS011;7466;53.574;9.976;2024-01-06T13:04:09;7.93;;;7.13;;
14748;SDS011;7466;53.574;9.976;2024-01-06T13:06:35;8.53;;;7.67;;
14748;SDS011;7466;53.574;9.976;2024-01-06T13:09:03;8.87;;;7.97;;
14748;SDS011;7466;53.574;9.976;2024-01-06T13:11:33;9.33;;;7.43;;
14748;SDS011;7466;53.574;9.976;2024-01-06T13:14:00;9.30;;;7.53;;
14748;SDS011;7466;53.574;9.976;2024-01-06T13:16:27;7.73;;;7.03;;
14748;SDS011;7466;53.574;9.976;2024-01-06T13:18:54;9.03;;;8.13;;
14748;SDS011;7466;53.574;9.976;2024-01-06T13:21:21;8.30;;;7.60;;
14748;SDS011;7466;53.574;9.976;2024-01-06T13:23:49;8.83;;;8.00;;
14748;SDS011;7466;53.574;9.976;2024-01-06T13:26:16;9.03;;;8.13;;
14748;SDS011;7466;53.574;9.976;2024-01-06T13:28:44;8.90;;;8.00;;
14748;SDS011;7466;53.574;9.976;2024-01-06T13:31:11;8.67;;;7.87;;
14748;SDS011;7466;53.574;9.976;2024-01-06T13:33:37;10.23;;;8.03;;
14748;SDS011;7466;53.574;9.976;2024-01-06T13:36:04;8.13;;;7.30;;
14748;SDS011;7466;53.574;9.976;2024-01-06T13:38:31;8.70;;;7.73;;
14748;SDS011;7466;53.574;9.976;2024-01-06T13:40:58;7.97;;;7.30;;
14748;SDS011;7466;53.574;9.976;2024-01-06T13:43:25;8.00;;;7.23;;
14748;SDS011;7466;53.574;9.976;2024-01-06T13:45:53;9.30;;;8.40;;
14748;SDS011;7466;53.574;9.976;2024-01-06T13:48:21;8.50;;;7.43;;
14748;SDS011;7466;53.574;9.976;2024-01-06T13:50:47;8.87;;;7.50;;
14748;SDS011;7466;53.574;9.976;2024-01-06T13:53:14;8.10;;;7.30;;
14748;SDS011;7466;53.574;9.976;2024-01-06T13:55:40;8.07;;;7.30;;
14748;SDS011;7466;53.574;9.976;2024-01-06T13:58:08;8.30;;;7.13;;
14748;SDS011;7466;53.574;9.976;2024-01-06T14:00:35;9.20;;;7.67;;
14748;SDS011;7466;53.574;9.976;2024-01-06T14:03:04;7.57;;;6.87;;
14748;SDS011;7466;53.574;9.976;2024-01-06T14:05:31;7.33;;;6.63;;
14748;SDS011;7466;53.574;9.976;2024-01-06T14:07:59;7.30;;;6.17;;
14748;SDS011;7466;53.574;9.976;2024-01-06T14:10:27;7.63;;;6.93;;
14748;SDS011;7466;53.574;9.976;2024-01-06T14:12:56;7.30;;;6.53;;
14748;SDS011;7466;53.574;9.976;2024-01-06T14:15:22;8.20;;;7.50;;
14748;SDS011;7466;53.574;9.976;2024-01-06T14:17:54;11.17;;;7.30;;
14748;SDS011;7466;53.574;9.976;2024-01-06T14:20:22;7.40;;;6.80;;
14748;SDS011;7466;53.574;9.976;2024-01-06T14:22:49;7.90;;;7.10;;
14748;SDS011;7466;53.574;9.976;2024-01-06T14:25:16;7.80;;;7.03;;
14748;SDS011;7466;53.574;9.976;2024-01-06T14:27:43;8.50;;;7.67;;
14748;SDS011;7466;53.574;9.976;2024-01-06T14:30:10;8.73;;;7.83;;
14748;SDS011;7466;53.574;9.976;2024-01-06T14:32:37;7.57;;;6.87;;
14748;SDS011;7466;53.574;9.976;2024-01-06T14:35:05;11.10;;;8.43;;
14748;SDS011;7466;53.574;9.976;2024-01-06T14:37:36;8.73;;;7.30;;
14748;SDS011;7466;53.574;9.976;2024-01-06T14:40:04;9.47;;;7.63;;
14748;SDS011;7466;53.574;9.976;2024-01-06T14:42:32;7.60;;;6.93;;
14748;SDS011;7466;53.574;9.976;2024-01-06T14:44:59;8.60;;;7.80;;
14748;SDS011;7466;53.574;9.976;2024-01-06T14:47:26;8.70;;;7.90;;
14748;SDS011;7466;53.574;9.976;2024-01-06T14:49:52;8.73;;;7.93;;
14748;SDS011;7466;53.574;9.976;2024-01-06T14:52:19;8.77;;;7.73;;
14748;SDS011;7466;53.574;9.976;2024-01-06T14:54:48;9.60;;;8.60;;
14748;SDS011;7466;53.574;9.976;2024-01-06T14:57:15;8.87;;;7.97;;
14748;SDS011;7466;53.574;9.976;2024-01-06T14:59:41;9.97;;;8.73;;
14748;SDS011;7466;53.574;9.976;2024-01-06T15:02:08;10.00;;;8.77;;